createdAt,value
2022-08-09T00:00:05.004Z,64.51
2022-08-09T00:02:34.443Z,63.65
2022-08-09T00:06:15.413Z,64.07
2022-08-09T00:07:49.147Z,64.67
2022-08-09T00:10:18.190Z,64.78
2022-08-09T00:12:52.511Z,64.28
2022-08-09T00:15:35.306Z,64.52
2022-08-09T00:18:11.132Z,64.18
2022-08-09T00:20:42.368Z,64.63
2022-08-09T00:23:55.684Z,65.34
2022-08-09T00:26:05.139Z,65.70
2022-08-09T00:28:32.290Z,65.93
2022-08-09T00:31:30.667Z,65.62
2022-08-09T00:33:54.188Z,65.79
2022-08-09T00:36:22.367Z,66.51
2022-08-09T00:38:56.070Z,66.92
2022-08-09T00:44:10.642Z,66.25
2022-08-09T00:44:25.759Z,66.14
2022-08-09T00:46:55.890Z,66.57
2022-08-09T00:49:28.245Z,66.53
2022-08-09T00:51:57.366Z,67.08
2022-08-09T00:54:31.615Z,66.30
2022-08-09T00:57:02.489Z,66.61
2022-08-09T00:59:40.928Z,66.78
2022-08-09T01:02:20.132Z,67.63
2022-08-09T01:05:14.350Z,67.52
2022-08-09T01:08:06.778Z,67.38
2022-08-09T01:10:53.931Z,67.47
2022-08-09T01:13:31.197Z,68.24
2022-08-09T01:16:12.805Z,68.21
2022-08-09T01:18:47.558Z,69.21
2022-08-09T01:21:51.210Z,69.19
2022-08-09T01:24:52.317Z,70.18
2022-08-09T01:27:21.524Z,69.80
2022-08-09T01:29:58.970Z,70.35
2022-08-09T01:32:34.796Z,69.56
2022-08-09T01:35:28.154Z,69.55
2022-08-09T01:38:09.273Z,69.47
2022-08-09T01:40:43.005Z,69.98
2022-08-09T01:43:11.456Z,69.82
2022-08-09T01:45:46.469Z,69.88
2022-08-09T01:48:19.641Z,70.69
2022-08-09T01:50:54.820Z,70.18
2022-08-09T01:53:23.942Z,70.75
2022-08-09T01:55:57.495Z,71.02
2022-08-09T01:58:26.207Z,72.07
2022-08-09T02:00:57.380Z,72.91
2022-08-09T02:03:25.716Z,72.98
2022-08-09T02:06:03.777Z,73.00
2022-08-09T02:08:57.137Z,73.05
2022-08-09T02:11:41.976Z,73.82
2022-08-09T02:14:15.973Z,74.44
2022-08-09T02:16:59.633Z,74.30
2022-08-09T02:19:43.375Z,74.63
2022-08-09T02:22:46.365Z,74.21
2022-08-09T02:25:20.079Z,74.18
2022-08-09T02:28:00.377Z,74.10
2022-08-09T02:30:43.234Z,74.34
2022-08-09T02:33:18.349Z,75.13
2022-08-09T02:36:03.879Z,74.41
2022-08-09T02:38:35.699Z,74.17
2022-08-09T02:41:08.688Z,74.85
2022-08-09T02:43:54.153Z,74.51
2022-08-09T02:46:27.697Z,75.17
2022-08-09T02:48:59.079Z,74.61
2022-08-09T02:51:27.969Z,75.05
2022-08-09T02:54:05.169Z,75.08
2022-08-09T02:56:34.583Z,74.28
2022-08-09T02:59:06.413Z,74.88
2022-08-09T03:01:58.667Z,75.38
2022-08-09T03:04:28.931Z,75.35
2022-08-09T03:06:59.721Z,74.85
2022-08-09T03:09:42.563Z,74.84
2022-08-09T03:12:13.446Z,74.93
2022-08-09T03:14:42.913Z,75.25
2022-08-09T03:17:16.381Z,75.21
2022-08-09T03:19:58.649Z,75.35
2022-08-09T03:22:31.646Z,75.61
2022-08-09T03:25:21.508Z,74.51
2022-08-09T03:27:51.245Z,74.24
2022-08-09T03:30:29.522Z,74.53
2022-08-09T03:33:05.601Z,74.25
2022-08-09T03:36:11.630Z,74.36
2022-08-09T03:38:28.969Z,74.72
2022-08-09T03:40:58.053Z,74.96
2022-08-09T03:43:25.086Z,74.64
2022-08-09T03:46:05.019Z,75.09
2022-08-09T03:48:51.698Z,74.51
2022-08-09T03:51:55.032Z,74.55
2022-08-09T03:54:10.746Z,74.90
2022-08-09T03:56:41.345Z,74.23
2022-08-09T03:59:17.099Z,74.45
2022-08-09T04:01:50.182Z,75.24
2022-08-09T04:04:18.205Z,74.89
2022-08-09T04:06:48.738Z,73.39
2022-08-09T04:09:41.936Z,74.18
2022-08-09T04:12:29.946Z,73.78
2022-08-09T04:15:01.902Z,72.74
2022-08-09T04:17:38.275Z,71.64
2022-08-09T04:20:07.420Z,71.43
2022-08-09T04:22:34.699Z,71.09
2022-08-09T04:25:08.557Z,70.85
2022-08-09T04:27:41.607Z,69.61
2022-08-09T04:30:13.367Z,67.94
2022-08-09T04:32:45.930Z,67.10
2022-08-09T04:35:13.690Z,66.89
2022-08-09T04:37:46.478Z,65.45
2022-08-09T04:40:28.563Z,64.12
2022-08-09T04:43:01.560Z,64.39
2022-08-09T04:45:30.662Z,64.03
2022-08-09T04:48:03.102Z,63.58
2022-08-09T04:50:34.926Z,63.23
2022-08-09T04:53:11.576Z,63.52
2022-08-09T04:55:57.872Z,62.36
2022-08-09T04:58:27.692Z,62.27
2022-08-09T05:00:55.524Z,61.56
2022-08-09T05:03:39.864Z,60.95
2022-08-09T05:06:09.830Z,59.14
2022-08-09T05:08:38.392Z,59.07
2022-08-09T05:11:06.803Z,58.55
2022-08-09T05:13:38.589Z,58.64
2022-08-09T05:16:10.126Z,57.11
2022-08-09T05:18:57.344Z,56.98
2022-08-09T05:21:24.683Z,56.63
2022-08-09T05:24:00.530Z,56.74
2022-08-09T05:26:36.791Z,56.40
2022-08-09T05:29:17.480Z,56.36
2022-08-09T05:31:56.161Z,55.52
2022-08-09T05:34:31.315Z,55.33
2022-08-09T05:37:01.876Z,54.82
2022-08-09T05:39:36.413Z,51.18
2022-08-09T05:42:10.315Z,51.71
2022-08-09T05:44:50.462Z,51.12
2022-08-09T05:47:18.498Z,50.66
2022-08-09T05:50:30.447Z,48.66
2022-08-09T05:52:31.999Z,46.51
2022-08-09T05:55:03.198Z,46.40
2022-08-09T05:57:56.013Z,47.54
2022-08-09T06:00:22.135Z,44.94
2022-08-09T06:02:49.223Z,45.45
2022-08-09T06:05:21.060Z,44.26
2022-08-09T06:08:10.936Z,44.18
2022-08-09T06:10:38.161Z,44.89
2022-08-09T06:13:12.305Z,45.50
2022-08-09T06:15:46.942Z,44.53
2022-08-09T06:18:15.719Z,43.96
2022-08-09T06:20:42.931Z,42.54
2022-08-09T06:23:16.769Z,42.62
2022-08-09T06:25:43.477Z,42.66
2022-08-09T06:28:10.397Z,42.21
2022-08-09T06:30:40.523Z,42.09
2022-08-09T06:33:39.777Z,41.61
2022-08-09T06:35:58.381Z,41.96
2022-08-09T06:38:32.238Z,41.69
2022-08-09T06:41:09.366Z,41.00
2022-08-09T06:43:46.989Z,40.48
2022-08-09T06:46:40.175Z,39.79
2022-08-09T06:49:01.479Z,40.36
2022-08-09T06:51:28.343Z,40.76
2022-08-09T06:53:56.080Z,39.54
2022-08-09T06:56:30.836Z,39.11
2022-08-09T07:00:55.907Z,39.34
2022-08-09T07:01:59.503Z,38.65
2022-08-09T07:04:30.791Z,38.01
2022-08-09T07:07:00.660Z,37.44
2022-08-09T07:09:55.343Z,37.34
2022-08-09T07:12:18.023Z,36.72
2022-08-09T07:14:51.300Z,36.34
2022-08-09T07:17:21.570Z,36.43
2022-08-09T07:19:50.983Z,35.84
2022-08-09T07:22:34.187Z,36.26
2022-08-09T07:25:01.978Z,36.51
2022-08-09T07:27:34.087Z,33.14
2022-08-09T07:30:09.911Z,33.05
2022-08-09T07:32:36.953Z,33.07
2022-08-09T07:35:11.668Z,33.18
2022-08-09T07:37:45.313Z,33.76
2022-08-09T07:40:17.120Z,33.51
2022-08-09T07:43:00.532Z,34.11
2022-08-09T07:45:39.868Z,34.05
2022-08-09T07:48:28.563Z,34.13
2022-08-09T07:51:09.352Z,32.99
2022-08-09T07:54:05.240Z,32.05
2022-08-09T07:56:30.962Z,31.44
2022-08-09T07:58:59.252Z,32.59
2022-08-09T08:01:28.468Z,32.08
2022-08-09T08:04:04.590Z,31.71
2022-08-09T08:06:37.469Z,31.89
2022-08-09T08:09:35.461Z,32.14
2022-08-09T08:12:28.236Z,32.68
2022-08-09T08:14:57.080Z,32.98
2022-08-09T08:17:35.526Z,30.60
2022-08-09T08:20:13.242Z,32.23
2022-08-09T08:22:40.863Z,31.19
2022-08-09T08:25:13.117Z,31.63
2022-08-09T08:27:40.568Z,31.65
2022-08-09T08:30:08.565Z,32.02
2022-08-09T08:32:52.258Z,31.22
2022-08-09T08:35:22.172Z,30.77
2022-08-09T08:38:02.137Z,31.03
2022-08-09T08:40:36.952Z,30.85
2022-08-09T08:43:13.169Z,30.65
2022-08-09T08:45:51.683Z,30.47
2022-08-09T08:48:32.288Z,30.76
2022-08-09T08:51:00.133Z,30.67
2022-08-09T08:53:32.116Z,29.71
2022-08-09T08:56:05.188Z,31.21
2022-08-09T08:58:36.077Z,31.95
2022-08-09T09:01:08.701Z,32.52
2022-08-09T09:03:37.495Z,33.20
2022-08-09T09:06:07.231Z,33.41
2022-08-09T09:08:42.084Z,33.99
2022-08-09T09:11:17.203Z,35.25
2022-08-09T09:13:55.694Z,35.25
2022-08-09T09:16:34.935Z,36.32
2022-08-09T09:22:05.219Z,37.11
2022-08-09T09:24:43.933Z,36.90
2022-08-09T09:27:22.054Z,37.72
2022-08-09T09:30:23.747Z,36.06
2022-08-09T09:33:16.355Z,36.56
2022-08-09T09:36:01.455Z,36.84
2022-08-09T09:38:46.596Z,37.25
2022-08-09T09:41:26.418Z,36.34
2022-08-09T09:44:12.856Z,36.39
2022-08-09T09:46:45.972Z,36.14
2022-08-09T09:49:49.872Z,36.22
2022-08-09T09:52:35.676Z,35.75
2022-08-09T09:55:24.410Z,35.66
2022-08-09T09:58:18.571Z,35.84
2022-08-09T10:01:04.686Z,35.97
2022-08-09T10:03:58.220Z,36.07
2022-08-09T10:06:31.932Z,35.51
2022-08-09T10:09:02.900Z,36.54
2022-08-09T10:12:11.365Z,36.28
2022-08-09T10:14:33.186Z,36.07
2022-08-09T10:17:51.025Z,36.72
2022-08-09T10:19:59.251Z,35.61
2022-08-09T10:22:35.584Z,34.94
2022-08-09T10:25:12.306Z,34.49
2022-08-09T10:27:56.101Z,34.76
2022-08-09T10:34:08.106Z,34.15
2022-08-09T10:36:00.859Z,33.39
2022-08-09T10:38:55.465Z,34.83
2022-08-09T10:41:17.966Z,35.94
2022-08-09T10:43:58.561Z,35.28
2022-08-09T10:47:01.400Z,34.85
2022-08-09T10:49:51.566Z,34.66
2022-08-09T10:52:42.644Z,33.22
2022-08-09T10:55:27.622Z,32.95
2022-08-09T10:58:00.118Z,32.76
2022-08-09T11:00:41.738Z,31.64
2022-08-09T11:03:51.019Z,32.16
2022-08-09T11:06:16.980Z,32.01
2022-08-09T11:08:47.057Z,31.84
2022-08-09T11:11:19.444Z,31.76
2022-08-09T11:13:50.873Z,31.38
2022-08-09T11:16:41.002Z,31.44
2022-08-09T11:19:10.437Z,32.17
2022-08-09T11:22:10.413Z,31.78
2022-08-09T11:25:05.602Z,32.44
2022-08-09T11:28:03.147Z,31.17
2022-08-09T11:30:37.898Z,30.48
2022-08-09T11:33:14.676Z,29.90
2022-08-09T11:35:59.525Z,30.62
2022-08-09T11:38:35.101Z,32.03
2022-08-09T11:41:13.069Z,31.14
2022-08-09T11:43:49.092Z,31.00
2022-08-09T11:46:26.707Z,29.82
2022-08-09T11:49:05.281Z,29.61
2022-08-09T11:52:56.525Z,29.06
2022-08-09T11:55:34.985Z,30.19
2022-08-09T11:58:19.814Z,30.77
2022-08-09T12:01:03.421Z,29.38
2022-08-09T12:03:57.287Z,28.31
2022-08-09T12:06:26.449Z,28.35
2022-08-09T12:08:56.643Z,28.38
2022-08-09T12:11:27.252Z,29.20
2022-08-09T12:14:10.159Z,29.17
2022-08-09T12:16:53.497Z,29.87
2022-08-09T12:19:32.211Z,30.12
2022-08-09T12:22:04.506Z,29.85
2022-08-09T12:24:31.580Z,30.17
2022-08-09T12:29:14.626Z,30.40
2022-08-09T12:30:02.034Z,30.35
2022-08-09T12:32:44.193Z,30.26
2022-08-09T12:35:13.303Z,30.38
2022-08-09T12:37:51.549Z,30.67
2022-08-09T12:40:24.464Z,30.41
2022-08-09T12:42:52.306Z,28.57
2022-08-09T12:45:33.670Z,29.81
2022-08-09T12:48:03.313Z,30.37
2022-08-09T12:50:30.895Z,28.90
2022-08-09T12:53:09.429Z,30.24
2022-08-09T12:56:14.329Z,31.59
2022-08-09T12:58:31.228Z,31.56
2022-08-09T13:00:58.661Z,30.55
2022-08-09T13:03:53.899Z,28.62
2022-08-09T13:06:34.755Z,27.84
2022-08-09T13:09:06.176Z,26.36
2022-08-09T13:11:39.556Z,25.39
2022-08-09T13:14:43.946Z,23.80
2022-08-09T13:17:44.036Z,24.31
2022-08-09T13:20:17.453Z,23.72
2022-08-09T13:23:00.960Z,24.83
2022-08-09T13:25:42.492Z,23.35
2022-08-09T13:28:24.477Z,24.24
2022-08-09T13:32:18.066Z,24.78
2022-08-09T13:33:54.477Z,24.85
2022-08-09T13:36:39.144Z,24.53
2022-08-09T13:41:50.812Z,24.54
2022-08-09T13:42:12.290Z,25.07
2022-08-09T13:44:43.010Z,23.95
2022-08-09T13:47:31.126Z,25.06
2022-08-09T13:50:04.414Z,25.61
2022-08-09T13:52:40.582Z,25.28
2022-08-09T13:55:13.742Z,25.06
2022-08-09T13:57:56.281Z,25.73
2022-08-09T14:00:28.970Z,28.10
2022-08-09T14:03:03.939Z,28.92
2022-08-09T14:05:58.949Z,30.33
2022-08-09T14:08:30.399Z,30.98
2022-08-09T14:10:59.649Z,30.69
2022-08-09T14:13:28.453Z,30.32
2022-08-09T14:16:17.423Z,29.64
2022-08-09T14:18:49.258Z,29.92
2022-08-09T14:21:18.594Z,30.13
2022-08-09T14:23:55.248Z,29.29
2022-08-09T14:26:31.900Z,30.22
2022-08-09T14:30:03.998Z,30.38
2022-08-09T14:31:55.249Z,30.09
2022-08-09T14:34:31.443Z,28.85
2022-08-09T14:37:07.810Z,29.50
2022-08-09T14:39:47.315Z,31.07
2022-08-09T14:42:31.456Z,31.79
2022-08-09T14:46:39.777Z,32.35
2022-08-09T14:47:57.157Z,32.63
2022-08-09T14:50:27.318Z,32.78
2022-08-09T14:52:54.114Z,34.09
2022-08-09T14:55:21.596Z,34.38
2022-08-09T14:57:49.344Z,34.10
2022-08-09T15:00:17.478Z,32.83
2022-08-09T15:02:47.512Z,31.80
2022-08-09T15:05:18.979Z,29.53
2022-08-09T15:07:55.952Z,28.98
2022-08-09T15:10:27.372Z,28.15
2022-08-09T15:12:55.024Z,28.26
2022-08-09T15:15:22.519Z,27.04
2022-08-09T15:17:52.497Z,27.55
2022-08-09T15:21:56.275Z,24.48
2022-08-09T15:24:02.197Z,25.08
2022-08-09T15:25:58.517Z,25.64
2022-08-09T15:28:28.414Z,27.10
2022-08-09T15:31:10.320Z,28.31
2022-08-09T15:34:15.419Z,27.86
2022-08-09T15:36:31.553Z,29.25
2022-08-09T15:39:00.158Z,29.59
2022-08-09T15:41:32.290Z,30.64
2022-08-09T15:44:03.799Z,30.92
2022-08-09T15:46:33.828Z,30.59
2022-08-09T15:49:22.196Z,31.49
2022-08-09T15:52:03.528Z,31.55
2022-08-09T15:54:44.825Z,35.57
2022-08-09T15:57:35.621Z,37.91
2022-08-09T16:00:14.218Z,37.72
2022-08-09T16:02:48.072Z,36.90
2022-08-09T16:05:22.657Z,37.22
2022-08-09T16:07:51.056Z,37.25
2022-08-09T16:10:56.101Z,38.67
2022-08-09T16:13:20.855Z,38.32
2022-08-09T16:16:06.153Z,37.40
2022-08-09T16:18:44.606Z,35.99
2022-08-09T16:21:17.322Z,35.35
2022-08-09T16:23:54.763Z,35.28
2022-08-09T16:26:35.463Z,35.51
2022-08-09T16:29:12.510Z,38.19
2022-08-09T16:32:17.720Z,38.25
2022-08-09T16:34:53.420Z,37.74
2022-08-09T16:37:55.475Z,35.92
2022-08-09T16:40:11.902Z,36.56
2022-08-09T16:42:45.486Z,38.17
2022-08-09T16:45:19.991Z,39.28
2022-08-09T16:48:42.403Z,39.89
2022-08-09T16:50:38.278Z,41.95
2022-08-09T16:53:05.846Z,44.20
2022-08-09T16:55:57.821Z,45.64
2022-08-09T16:58:21.129Z,47.58
2022-08-09T17:00:48.959Z,49.54
2022-08-09T17:03:21.493Z,51.07
2022-08-09T17:06:06.974Z,51.98
2022-08-09T17:08:46.287Z,52.11
2022-08-09T17:11:24.390Z,52.66
2022-08-09T17:14:01.068Z,53.71
2022-08-09T17:16:29.043Z,55.58
2022-08-09T17:18:55.698Z,56.91
2022-08-09T17:21:25.028Z,57.94
2022-08-09T17:24:20.393Z,58.58
2022-08-09T17:26:42.487Z,59.25
2022-08-09T17:29:20.137Z,59.48
2022-08-09T17:31:49.231Z,60.82
2022-08-09T17:34:59.809Z,62.15
2022-08-09T17:37:03.761Z,62.41
2022-08-09T17:39:52.822Z,62.76
2022-08-09T17:42:41.089Z,63.65
2022-08-09T17:45:06.500Z,64.79
2022-08-09T17:47:49.516Z,64.68
2022-08-09T17:50:36.086Z,64.92
2022-08-09T17:53:19.501Z,65.49
2022-08-09T17:55:55.284Z,66.34
2022-08-09T17:58:26.963Z,66.95
2022-08-09T18:00:58.466Z,66.22
2022-08-09T18:03:26.399Z,66.89
2022-08-09T18:05:57.270Z,65.99
2022-08-09T18:08:27.386Z,66.03
2022-08-09T18:11:00.868Z,65.74
2022-08-09T18:13:42.933Z,65.98
2022-08-09T18:16:17.361Z,66.94
2022-08-09T18:18:56.896Z,66.51
2022-08-09T18:21:24.434Z,66.18
2022-08-09T18:24:09.787Z,66.57
2022-08-09T18:26:45.962Z,66.73
2022-08-09T18:30:39.094Z,66.53
2022-08-09T18:32:03.047Z,66.71
2022-08-09T18:34:31.827Z,67.63
2022-08-09T18:36:59.017Z,67.25
2022-08-09T18:39:32.449Z,67.12
2022-08-09T18:42:08.095Z,67.50
2022-08-09T18:44:35.509Z,66.72
2022-08-09T18:47:08.073Z,66.66
2022-08-09T18:49:43.723Z,66.58
2022-08-09T18:52:14.433Z,66.08
2022-08-09T18:54:52.129Z,65.67
2022-08-09T18:57:21.932Z,66.06
2022-08-09T18:59:57.465Z,65.78
2022-08-09T19:02:32.350Z,65.95
2022-08-09T19:05:20.022Z,66.08
2022-08-09T19:07:59.173Z,65.42
2022-08-09T19:10:37.638Z,64.37
2022-08-09T19:13:19.852Z,63.94
2022-08-09T19:15:49.927Z,63.00
2022-08-09T19:18:33.291Z,63.44
2022-08-09T19:21:09.849Z,65.52
2022-08-09T19:24:35.916Z,65.82
2022-08-09T19:26:31.004Z,65.21
2022-08-09T19:29:15.514Z,64.63
2022-08-09T19:31:49.474Z,63.70
2022-08-09T19:34:22.837Z,64.27
2022-08-09T19:36:51.636Z,63.99
2022-08-09T19:39:20.963Z,64.86
2022-08-09T19:42:05.556Z,64.86
2022-08-09T19:44:33.902Z,65.08
2022-08-09T19:47:01.652Z,65.96
2022-08-09T19:50:48.765Z,66.09
2022-08-09T19:52:15.551Z,65.70
2022-08-09T19:54:44.996Z,64.89
2022-08-09T19:57:11.642Z,64.41
2022-08-09T20:00:01.909Z,64.02
2022-08-09T20:04:13.854Z,64.14
2022-08-09T20:05:14.964Z,64.12
2022-08-09T20:08:00.167Z,64.44
2022-08-09T20:10:34.742Z,63.86
2022-08-09T20:13:05.269Z,64.06
2022-08-09T20:16:33.585Z,64.08
2022-08-09T20:18:19.582Z,64.65
2022-08-09T20:20:47.186Z,64.25
2022-08-09T20:23:17.384Z,64.44
2022-08-09T20:25:51.542Z,64.34
2022-08-09T20:28:34.320Z,65.04
2022-08-09T20:31:11.299Z,64.08
2022-08-09T20:33:44.196Z,63.35
2022-08-09T20:36:12.422Z,63.26
2022-08-09T20:41:35.044Z,64.57
2022-08-09T20:44:05.008Z,64.98
2022-08-09T20:46:43.210Z,65.30
2022-08-09T20:49:12.899Z,66.23
2022-08-09T20:51:41.012Z,64.78
2022-08-09T20:54:12.602Z,64.60
2022-08-09T20:56:47.129Z,65.38
2022-08-09T20:59:17.234Z,65.05
2022-08-09T21:01:51.552Z,65.43
2022-08-09T21:05:51.484Z,65.54
2022-08-09T21:07:10.977Z,66.18
2022-08-09T21:09:45.722Z,66.80
2022-08-09T21:12:23.727Z,66.58
2022-08-09T21:14:59.083Z,66.83
2022-08-09T21:18:20.617Z,66.94
2022-08-09T21:20:22.481Z,67.71
2022-08-09T21:22:54.490Z,67.63
2022-08-09T21:25:44.347Z,67.84
2022-08-09T21:28:35.153Z,67.95
2022-08-09T21:31:18.181Z,68.34
2022-08-09T21:33:51.401Z,68.54
2022-08-09T21:36:28.112Z,68.93
2022-08-09T21:38:57.498Z,69.16
2022-08-09T21:42:00.238Z,67.67
2022-08-09T21:44:15.428Z,67.60
2022-08-09T21:47:00.136Z,67.48
2022-08-09T21:49:28.478Z,68.13
2022-08-09T21:51:55.136Z,67.00
2022-08-09T21:54:21.774Z,66.88
2022-08-09T21:56:54.595Z,65.94
2022-08-09T21:59:23.504Z,64.93
2022-08-09T22:02:00.433Z,64.62
2022-08-09T22:04:55.206Z,65.65
2022-08-09T22:07:35.074Z,64.04
2022-08-09T22:10:08.303Z,64.36
2022-08-09T22:12:38.076Z,65.02
2022-08-09T22:15:07.291Z,65.56
2022-08-09T22:17:45.978Z,65.60
2022-08-09T22:20:21.496Z,66.05
2022-08-09T22:22:53.943Z,66.45
2022-08-09T22:26:07.383Z,66.80
2022-08-09T22:28:07.557Z,66.77
2022-08-09T22:30:34.399Z,66.02
2022-08-09T22:33:03.426Z,65.91
2022-08-09T22:36:01.133Z,66.57
2022-08-09T22:38:23.207Z,66.58
2022-08-09T22:40:57.467Z,65.89
2022-08-09T22:44:02.426Z,66.72
2022-08-09T22:48:11.845Z,67.32
2022-08-09T22:48:59.893Z,67.02
2022-08-09T22:51:28.696Z,67.20
2022-08-09T22:54:02.389Z,65.92
2022-08-09T22:56:34.120Z,65.87
2022-08-09T22:59:05.873Z,64.94
2022-08-09T23:01:51.956Z,65.18
2022-08-09T23:04:18.711Z,65.36
2022-08-09T23:07:04.024Z,66.10
2022-08-09T23:09:38.565Z,65.81
2022-08-09T23:12:05.419Z,65.15
2022-08-09T23:14:42.141Z,65.41
2022-08-09T23:17:10.316Z,65.72
2022-08-09T23:20:00.809Z,67.06
2022-08-09T23:22:24.430Z,65.52
2022-08-09T23:24:51.111Z,65.74
2022-08-09T23:27:17.756Z,65.50
2022-08-09T23:29:44.483Z,64.16
2022-08-09T23:32:12.003Z,62.97
2022-08-09T23:34:38.620Z,62.73
2022-08-09T23:37:06.103Z,61.76
2022-08-09T23:39:32.953Z,61.50
2022-08-09T23:41:59.832Z,61.69
2022-08-09T23:44:26.605Z,61.31
2022-08-09T23:46:57.531Z,61.37
2022-08-09T23:49:25.971Z,60.49
2022-08-09T23:51:54.071Z,59.91
2022-08-09T23:54:26.638Z,58.76
2022-08-09T23:56:56.009Z,57.92
2022-08-09T23:59:24.026Z,57.46
